Huvudsida
METAR-TAF:

METAR-TAF

Flygplatser :

Vilhelmina, Sverige

Vilhelmina flygplats

latitud: 64-34-44N, longitud: 016-50-00E, höjd: 347 m

Aktuellt väderrapport

Denna rapport gjordes för 28 minuter sedan, klockan 02:50 UTC
Stilla vind
Temperatur -18°C
Fuktighet 84%
Tryck 999 hPa
Sikt: 5000 m
lätt snö

METAR: ESNV 190250Z AUTO 00000KT 5000 -SN BKN002/// OVC004/// M18/M20 Q0999

Tid: 04:18 (03:18 UTC)


TAF: saknas

Aktuella väderrapporter och prognoser från 4000 flygplatser (METAR- och TAF-rapporter).

De tillgängliga stationerna syns som gula och röda prickar på kartan.

För musen över prickarna för att se namnen på stationerna.

Klicka sedan för att få väderrapporter och prognoser.

För att ändra kartan: Klicka på de gröna knapparna med ett svart kors på för att zooma in; den gröna knappen med ett streck på för att zooma ut; eller på de gröna pilarna för angränsande kartor.


METAR-TAF: